Time;durP1;ratioP1;P1;durP2;ratioP2;P2;SDS_P1;SDS_P2;PMS_P1;PMS_P2;Temp;Humidity;BMP_temperature;BMP_pressure;BME280_temperature;BME280_humidity;BME280_pressure;Samples;Min_cycle;Max_cycle;Signal;HPM_P1;HPM_P2
2021/09/29 00:01:19;;;;;;;8.80;7.00;;;15.60;99.90;;;;;;5068482;28;20185;-51
2021/09/29 00:03:45;;;;;;;7.60;6.90;;;15.50;99.90;;;;;;5076622;28;20623;-47
2021/09/29 00:06:10;;;;;;;7.57;6.73;;;15.60;99.90;;;;;;5069547;28;20186;-52
2021/09/29 00:08:37;;;;;;;8.93;7.10;;;15.60;99.90;;;;;;5074479;28;20216;-49
2021/09/29 00:11:03;;;;;;;7.40;6.70;;;15.60;99.90;;;;;;5083524;28;20186;-50
2021/09/29 00:13:29;;;;;;;10.93;8.00;;;15.60;99.90;;;;;;5070183;28;20934;-50
2021/09/29 00:15:55;;;;;;;8.27;6.53;;;15.60;99.90;;;;;;5068430;28;20178;-55
2021/09/29 00:18:22;;;;;;;7.17;6.10;;;15.60;99.90;;;;;;5067471;28;20823;-50
2021/09/29 00:20:48;;;;;;;9.97;8.13;;;15.60;99.90;;;;;;5069035;28;20495;-52
2021/09/29 00:23:14;;;;;;;10.67;7.50;;;15.60;99.90;;;;;;5076525;28;20455;-48
2021/09/29 00:25:40;;;;;;;9.73;7.60;;;15.60;99.90;;;;;;5084765;28;20419;-51
2021/09/29 00:28:05;;;;;;;7.90;7.10;;;15.60;99.90;;;;;;5067825;28;20264;-47
2021/09/29 00:30:36;;;;;;;7.40;6.70;;;15.60;99.90;;;;;;5067941;28;20193;-52
2021/09/29 00:33:03;;;;;;;10.67;7.60;;;15.70;99.90;;;;;;5064638;28;20182;-52
2021/09/29 00:35:28;;;;;;;8.20;7.40;;;15.70;99.90;;;;;;5060125;28;20874;-51
2021/09/29 00:37:54;;;;;;;7.77;7.00;;;15.70;99.90;;;;;;5079569;28;20463;-49
2021/09/29 00:40:19;;;;;;;7.33;6.60;;;15.70;99.90;;;;;;5072114;28;20844;-52
2021/09/29 00:42:45;;;;;;;9.67;7.53;;;15.70;99.90;;;;;;5086468;28;20280;-51
2021/09/29 00:45:11;;;;;;;9.60;8.60;;;15.70;99.90;;;;;;5086995;28;20196;-50
2021/09/29 00:47:36;;;;;;;10.30;8.23;;;15.80;99.90;;;;;;5070080;28;20636;-50
2021/09/29 00:50:07;;;;;;;9.63;7.50;;;15.80;99.90;;;;;;5072966;28;20185;-49
2021/09/29 00:52:34;;;;;;;10.27;7.83;;;15.70;99.90;;;;;;5075686;28;20189;-48
2021/09/29 00:55:00;;;;;;;11.87;7.30;;;15.70;99.90;;;;;;5093323;28;20414;-50
2021/09/29 00:57:25;;;;;;;9.77;7.70;;;15.70;99.90;;;;;;5072681;28;20482;-50
2021/09/29 00:59:51;;;;;;;11.17;7.53;;;15.60;99.90;;;;;;5072718;28;20213;-52
2021/09/29 01:02:19;;;;;;;8.13;7.33;;;15.60;99.90;;;;;;5071562;28;20667;-48
2021/09/29 01:04:46;;;;;;;9.93;8.40;;;15.60;99.90;;;;;;5074119;28;20209;-51
2021/09/29 01:07:29;;;;;;;10.27;8.57;;;15.60;99.90;;;;;;5070833;28;20862;-49
2021/09/29 01:10:19;;;;;;;10.13;7.40;;;15.60;99.90;;;;;;5064702;28;20427;-48
2021/09/29 01:13:10;;;;;;;11.00;8.10;;;15.60;99.90;;;;;;5068552;28;20432;-51
2021/09/29 01:15:47;;;;;;;10.50;8.40;;;15.60;99.90;;;;;;5071410;28;20867;-51
2021/09/29 01:18:14;;;;;;;11.77;9.37;;;15.60;99.90;;;;;;5064591;28;20612;-49
2021/09/29 01:20:53;;;;;;;10.87;8.60;;;15.60;99.90;;;;;;5071417;28;20468;-48
2021/09/29 01:23:56;;;;;;;11.03;8.63;;;15.70;99.90;;;;;;5065283;28;20434;-47
2021/09/29 01:26:26;;;;;;;11.83;10.63;;;15.70;99.90;;;;;;5064229;28;20919;-53
2021/09/29 01:28:56;;;;;;;10.97;8.50;;;15.70;99.90;;;;;;5069301;28;20459;-47
2021/09/29 01:31:23;;;;;;;13.40;10.13;;;15.70;99.90;;;;;;5079112;28;20439;-48
2021/09/29 01:33:50;;;;;;;13.57;10.07;;;15.70;99.90;;;;;;5064091;28;20439;-53
2021/09/29 01:36:18;;;;;;;12.93;10.53;;;15.70;99.90;;;;;;5075805;28;20440;-50
2021/09/29 01:38:47;;;;;;;17.23;11.30;;;15.70;99.90;;;;;;5079710;28;20523;-48
2021/09/29 01:41:13;;;;;;;13.80;10.13;;;15.70;99.90;;;;;;5082455;28;20447;-53
2021/09/29 01:43:38;;;;;;;13.83;10.73;;;15.70;99.90;;;;;;5074226;28;20499;-48
2021/09/29 01:46:06;;;;;;;12.63;9.90;;;15.70;99.90;;;;;;5077292;28;20193;-51
2021/09/29 01:48:38;;;;;;;12.87;10.57;;;15.70;99.90;;;;;;5067198;28;20181;-52
2021/09/29 01:51:03;;;;;;;15.30;10.60;;;15.70;99.90;;;;;;5072335;28;20447;-47
2021/09/29 01:53:33;;;;;;;17.57;12.00;;;15.60;99.90;;;;;;5070416;28;20956;-48
2021/09/29 01:55:59;;;;;;;16.40;10.13;;;15.60;99.90;;;;;;5070932;28;20300;-48
2021/09/29 01:58:25;;;;;;;17.50;10.53;;;15.60;99.90;;;;;;5085567;28;20463;-47
2021/09/29 02:00:50;;;;;;;13.63;10.10;;;15.60;99.90;;;;;;5081561;28;20431;-48
2021/09/29 02:03:21;;;;;;;14.10;10.67;;;15.70;99.90;;;;;;5080820;28;20613;-48
2021/09/29 02:05:51;;;;;;;13.03;10.00;;;15.70;99.90;;;;;;5082774;28;20193;-51
2021/09/29 02:08:17;;;;;;;12.90;10.30;;;15.60;99.90;;;;;;5081050;28;20447;-51
2021/09/29 02:10:43;;;;;;;12.77;10.00;;;15.60;99.90;;;;;;5070582;28;20435;-51
2021/09/29 02:13:08;;;;;;;27.03;22.43;;;15.50;99.90;;;;;;5069052;28;20186;-52
2021/09/29 02:15:34;;;;;;;28.67;25.00;;;15.40;99.90;;;;;;5070554;28;20687;-48
2021/09/29 02:17:59;;;;;;;33.97;29.80;;;15.50;99.90;;;;;;5069845;28;20235;-46
2021/09/29 02:20:25;;;;;;;49.37;43.30;;;15.50;99.90;;;;;;5070165;28;20185;-49
2021/09/29 02:22:50;;;;;;;38.87;29.43;;;15.50;99.90;;;;;;5071191;28;20185;-50
2021/09/29 02:25:16;;;;;;;32.40;26.73;;;15.40;99.90;;;;;;5074312;28;20195;-49
2021/09/29 02:27:42;;;;;;;32.63;24.60;;;15.40;99.90;;;;;;5090042;28;20274;-51
2021/09/29 02:30:10;;;;;;;23.83;21.20;;;15.40;99.90;;;;;;5068608;28;20193;-50
2021/09/29 02:32:40;;;;;;;23.40;19.70;;;15.40;99.90;;;;;;5069337;28;20196;-50
2021/09/29 02:35:08;;;;;;;17.70;14.70;;;15.40;99.90;;;;;;5070132;28;20446;-48
2021/09/29 02:37:34;;;;;;;15.10;13.00;;;15.40;99.90;;;;;;5084108;28;20455;-48
2021/09/29 02:39:59;;;;;;;17.10;12.53;;;15.30;99.90;;;;;;5070730;28;20431;-50
2021/09/29 02:42:25;;;;;;;15.83;12.07;;;15.40;99.90;;;;;;5068183;28;20200;-47
2021/09/29 02:44:50;;;;;;;16.30;11.67;;;15.40;99.90;;;;;;5068332;28;20797;-45
2021/09/29 02:47:16;;;;;;;13.77;11.20;;;15.40;99.90;;;;;;5075468;28;20207;-50
2021/09/29 02:49:41;;;;;;;14.33;11.20;;;15.40;99.90;;;;;;5071938;28;20185;-48
2021/09/29 02:52:07;;;;;;;16.53;11.20;;;15.40;99.90;;;;;;5070603;28;20194;-48
2021/09/29 02:54:33;;;;;;;14.70;10.87;;;15.40;99.90;;;;;;5081365;28;20516;-50
2021/09/29 02:56:58;;;;;;;15.07;10.57;;;15.40;99.90;;;;;;5073586;28;20741;-47
2021/09/29 02:59:24;;;;;;;16.20;12.20;;;15.50;99.90;;;;;;5087593;28;20623;-49
2021/09/29 03:01:49;;;;;;;13.80;11.03;;;15.50;99.90;;;;;;5078141;28;20213;-53
2021/09/29 03:04:15;;;;;;;12.67;11.03;;;15.50;99.90;;;;;;5081780;28;20184;-49
2021/09/29 03:06:40;;;;;;;16.33;10.73;;;15.50;99.90;;;;;;5073340;28;20213;-50
2021/09/29 03:09:06;;;;;;;16.37;12.60;;;15.60;99.90;;;;;;5081715;28;20552;-47
2021/09/29 03:11:32;;;;;;;20.17;13.17;;;15.50;99.90;;;;;;5072455;28;20921;-47
2021/09/29 03:13:57;;;;;;;18.63;13.40;;;15.50;99.90;;;;;;5062908;28;20193;-48
2021/09/29 03:16:23;;;;;;;23.00;14.90;;;15.50;99.90;;;;;;5068010;28;20234;-52
2021/09/29 03:18:49;;;;;;;17.63;12.30;;;15.50;99.90;;;;;;5076534;28;20182;-50
2021/09/29 03:21:15;;;;;;;19.43;13.27;;;15.50;99.90;;;;;;5067344;28;20200;-50
2021/09/29 03:23:41;;;;;;;18.77;13.80;;;15.50;99.90;;;;;;5067505;28;20444;-51
2021/09/29 03:26:07;;;;;;;20.90;15.10;;;15.40;99.90;;;;;;5068985;28;20534;-46
2021/09/29 03:28:33;;;;;;;23.17;15.53;;;15.40;99.90;;;;;;5069927;28;20859;-55
2021/09/29 03:30:58;;;;;;;23.23;14.70;;;15.40;99.90;;;;;;5068409;28;20528;-50
2021/09/29 03:33:24;;;;;;;18.70;14.50;;;15.40;99.90;;;;;;5064097;28;20674;-50
2021/09/29 03:35:50;;;;;;;24.50;15.20;;;15.40;99.90;;;;;;5069017;28;20308;-51
2021/09/29 03:38:16;;;;;;;20.27;14.53;;;15.50;99.90;;;;;;5069726;28;20205;-49
2021/09/29 03:40:41;;;;;;;22.37;14.27;;;15.50;99.90;;;;;;5082855;28;20549;-48
2021/09/29 03:43:07;;;;;;;24.97;16.07;;;15.50;99.90;;;;;;5068204;28;20333;-51
2021/09/29 03:45:32;;;;;;;23.63;15.90;;;15.40;99.90;;;;;;5069185;28;20209;-48
2021/09/29 03:47:58;;;;;;;20.57;15.20;;;15.40;99.90;;;;;;5074368;28;20224;-47
2021/09/29 03:50:24;;;;;;;21.20;16.47;;;15.40;99.90;;;;;;5089460;28;20279;-48
2021/09/29 03:52:49;;;;;;;24.20;16.63;;;15.50;99.90;;;;;;5070034;28;20193;-51
2021/09/29 03:55:15;;;;;;;22.60;15.70;;;15.40;99.90;;;;;;5072941;28;20186;-50
2021/09/29 03:57:40;;;;;;;23.43;15.10;;;15.30;99.90;;;;;;5067832;28;20308;-48
2021/09/29 04:00:11;;;;;;;22.73;15.40;;;15.30;99.90;;;;;;5068469;28;20208;-52
2021/09/29 04:02:38;;;;;;;20.97;15.97;;;15.30;99.90;;;;;;5062848;28;20247;-47
2021/09/29 04:05:05;;;;;;;21.00;15.53;;;15.30;99.90;;;;;;5066271;28;20450;-51
2021/09/29 04:07:31;;;;;;;21.87;15.47;;;15.30;99.90;;;;;;5056345;28;20440;-51
2021/09/29 04:09:56;;;;;;;25.17;15.93;;;15.30;99.90;;;;;;5069038;28;21376;-50
2021/09/29 04:12:22;;;;;;;21.87;15.60;;;15.20;99.90;;;;;;5067366;28;20652;-46
2021/09/29 04:14:48;;;;;;;20.27;14.50;;;15.20;99.90;;;;;;5069078;28;20591;-50
2021/09/29 04:17:14;;;;;;;21.20;15.93;;;15.20;99.90;;;;;;5068028;28;20244;-51
2021/09/29 04:19:40;;;;;;;22.47;15.40;;;15.20;99.90;;;;;;5062978;28;21016;-51
2021/09/29 04:22:10;;;;;;;23.20;16.13;;;15.20;99.90;;;;;;5071887;28;20185;-51
2021/09/29 04:24:36;;;;;;;19.87;14.90;;;15.30;99.90;;;;;;5078512;28;20632;-49
2021/09/29 04:27:02;;;;;;;20.37;15.63;;;15.30;99.90;;;;;;5074546;28;20476;-51
2021/09/29 04:29:27;;;;;;;22.07;16.20;;;15.30;99.90;;;;;;5060555;28;20424;-52
2021/09/29 04:31:53;;;;;;;22.33;15.70;;;15.20;99.90;;;;;;5060956;28;20558;-50
2021/09/29 04:34:19;;;;;;;22.03;16.37;;;15.10;99.90;;;;;;5079699;28;20196;-53
2021/09/29 04:36:46;;;;;;;22.00;15.13;;;15.10;99.90;;;;;;5059286;28;20284;-52
2021/09/29 04:39:13;;;;;;;19.90;14.20;;;15.10;99.90;;;;;;5060828;28;20188;-48
2021/09/29 04:41:38;;;;;;;23.30;15.50;;;15.10;99.90;;;;;;5064077;28;20436;-54
2021/09/29 04:44:04;;;;;;;20.83;14.43;;;15.10;99.90;;;;;;5068926;28;20466;-49
2021/09/29 04:46:30;;;;;;;21.87;15.67;;;15.10;99.90;;;;;;5083738;28;20184;-48
2021/09/29 04:48:55;;;;;;;23.03;15.83;;;15.10;99.90;;;;;;5082226;28;20189;-50
2021/09/29 04:51:21;;;;;;;20.87;14.90;;;15.10;99.90;;;;;;5088996;28;20527;-53
2021/09/29 04:53:46;;;;;;;23.20;15.80;;;15.10;99.90;;;;;;5084492;28;20726;-51
2021/09/29 04:56:12;;;;;;;21.90;15.63;;;15.10;99.90;;;;;;5088870;28;20689;-49
2021/09/29 04:58:37;;;;;;;23.20;16.67;;;15.10;99.90;;;;;;5070137;28;20224;-49
2021/09/29 05:01:03;;;;;;;21.37;15.80;;;15.10;99.90;;;;;;5066665;28;20540;-48
2021/09/29 05:03:31;;;;;;;30.50;18.37;;;15.20;99.90;;;;;;5088972;28;20184;-51
2021/09/29 05:05:57;;;;;;;24.13;16.40;;;15.20;99.90;;;;;;5075726;28;20963;-53
2021/09/29 05:08:28;;;;;;;20.23;15.60;;;15.10;99.90;;;;;;5088878;28;20419;-52
2021/09/29 05:11:16;;;;;;;23.23;16.67;;;15.10;99.90;;;;;;5088931;28;20184;-52
2021/09/29 05:13:41;;;;;;;22.70;15.67;;;15.10;99.90;;;;;;5088597;28;20426;-52
2021/09/29 05:16:07;;;;;;;23.00;16.10;;;15.00;99.90;;;;;;5078141;28;20431;-51
2021/09/29 05:18:32;;;;;;;27.80;16.70;;;15.00;99.90;;;;;;5088728;28;20192;-48
2021/09/29 05:20:58;;;;;;;22.33;16.50;;;15.00;99.90;;;;;;5076581;28;20231;-49
2021/09/29 05:23:24;;;;;;;21.50;15.80;;;15.00;99.90;;;;;;5072265;28;20186;-48
2021/09/29 05:25:50;;;;;;;22.07;16.33;;;15.10;99.90;;;;;;5070627;28;20721;-51
2021/09/29 05:28:20;;;;;;;24.20;16.50;;;15.10;99.90;;;;;;5067445;28;20488;-49
2021/09/29 05:30:46;;;;;;;22.60;16.13;;;15.20;99.90;;;;;;5064316;28;20424;-50
2021/09/29 05:33:12;;;;;;;20.30;15.90;;;15.20;99.90;;;;;;5091846;28;20471;-53
2021/09/29 05:35:37;;;;;;;22.83;16.13;;;15.20;99.90;;;;;;5092156;28;20317;-50
2021/09/29 05:38:03;;;;;;;23.80;16.77;;;15.20;99.90;;;;;;5091749;28;20208;-50
2021/09/29 05:40:29;;;;;;;21.20;15.90;;;15.20;99.90;;;;;;5083085;28;20181;-49
2021/09/29 05:42:54;;;;;;;22.90;16.60;;;15.30;99.90;;;;;;5081780;28;21097;-51
2021/09/29 05:45:20;;;;;;;24.27;17.27;;;15.30;99.90;;;;;;5085726;28;20182;-51
2021/09/29 05:47:46;;;;;;;23.80;16.77;;;15.40;99.90;;;;;;5078203;28;20188;-48
2021/09/29 05:50:12;;;;;;;25.30;18.47;;;15.50;99.90;;;;;;5092131;28;20423;-49
2021/09/29 05:52:38;;;;;;;24.17;17.40;;;15.50;99.90;;;;;;5091694;28;20211;-50
2021/09/29 05:55:05;;;;;;;21.33;17.17;;;15.50;99.90;;;;;;5085189;28;22956;-48
2021/09/29 05:57:30;;;;;;;22.60;18.10;;;15.50;99.90;;;;;;5071087;28;20667;-50
2021/09/29 05:59:56;;;;;;;22.00;16.87;;;15.60;99.90;;;;;;5061592;28;20421;-50
2021/09/29 06:02:22;;;;;;;22.33;17.37;;;15.60;99.90;;;;;;5066646;28;20193;-51
2021/09/29 06:04:47;;;;;;;23.53;17.80;;;15.70;99.90;;;;;;5069640;28;20451;-48
2021/09/29 06:07:16;;;;;;;20.67;16.50;;;15.70;99.90;;;;;;5080224;28;20205;-52
2021/09/29 06:09:44;;;;;;;21.90;17.40;;;15.70;99.90;;;;;;5070856;28;20185;-48
2021/09/29 06:12:10;;;;;;;21.33;17.23;;;15.70;99.90;;;;;;5068408;28;20428;-49
2021/09/29 06:14:36;;;;;;;22.07;17.37;;;15.90;99.90;;;;;;5078921;28;20438;-47
2021/09/29 06:17:24;;;;;;;25.43;19.53;;;15.90;99.90;;;;;;5091339;28;20886;-50
2021/09/29 06:19:52;;;;;;;20.30;16.77;;;15.80;99.90;;;;;;5089636;28;20438;-48
2021/09/29 06:22:18;;;;;;;21.17;17.50;;;15.80;99.90;;;;;;5091376;28;20423;-50
2021/09/29 06:24:43;;;;;;;19.60;16.50;;;15.90;99.90;;;;;;5088699;28;20932;-50
2021/09/29 06:27:09;;;;;;;21.60;17.80;;;15.90;99.90;;;;;;5067493;28;20832;-54
2021/09/29 06:29:35;;;;;;;21.80;17.73;;;16.00;99.90;;;;;;5069869;28;20190;-47
2021/09/29 06:32:02;;;;;;;21.03;16.73;;;16.10;99.90;;;;;;5066211;28;20197;-46
2021/09/29 06:34:28;;;;;;;20.20;17.30;;;16.00;99.90;;;;;;5065762;28;20230;-47
2021/09/29 06:36:54;;;;;;;22.87;18.50;;;16.10;99.90;;;;;;5063446;28;20921;-49
2021/09/29 06:39:20;;;;;;;21.67;17.70;;;16.10;99.90;;;;;;5062892;28;20454;-49
2021/09/29 06:41:46;;;;;;;21.47;17.47;;;16.20;99.90;;;;;;5067009;28;20412;-47
2021/09/29 06:44:13;;;;;;;21.60;17.77;;;16.20;99.90;;;;;;5066196;28;20221;-50
2021/09/29 06:46:38;;;;;;;22.13;18.43;;;16.30;99.90;;;;;;5067433;28;20193;-47
2021/09/29 06:49:04;;;;;;;20.50;17.77;;;16.30;99.90;;;;;;5071620;28;20421;-50
2021/09/29 06:51:30;;;;;;;21.00;18.10;;;16.30;99.90;;;;;;5063106;28;20195;-49
2021/09/29 06:53:56;;;;;;;27.77;19.40;;;16.30;99.90;;;;;;5064373;28;20455;-52
2021/09/29 06:56:21;;;;;;;23.20;19.07;;;16.20;99.90;;;;;;5068045;28;20547;-50
2021/09/29 06:58:51;;;;;;;21.93;18.80;;;16.30;99.90;;;;;;5085012;28;20197;-49
2021/09/29 07:01:16;;;;;;;22.30;18.53;;;16.30;99.90;;;;;;5089023;28;21010;-51
2021/09/29 07:03:43;;;;;;;23.63;19.27;;;16.30;99.90;;;;;;5072205;28;20435;-52
2021/09/29 07:06:09;;;;;;;24.27;19.90;;;16.30;99.90;;;;;;5074211;28;20184;-50
2021/09/29 07:08:35;;;;;;;25.17;20.77;;;16.30;99.90;;;;;;5060068;28;20921;-49
2021/09/29 07:11:00;;;;;;;26.00;20.03;;;16.20;99.90;;;;;;5086858;28;20478;-52
2021/09/29 07:13:26;;;;;;;25.17;20.93;;;16.20;99.90;;;;;;5068691;28;21001;-52
2021/09/29 07:15:52;;;;;;;29.00;21.77;;;16.10;99.90;;;;;;5071859;28;20293;-51
2021/09/29 07:18:17;;;;;;;26.63;21.70;;;16.10;99.90;;;;;;5070046;28;20670;-51
2021/09/29 07:20:44;;;;;;;30.47;23.70;;;16.00;99.90;;;;;;5071091;28;20252;-49
2021/09/29 07:23:10;;;;;;;27.50;22.40;;;15.90;99.90;;;;;;5072643;28;20173;-48
2021/09/29 07:25:37;;;;;;;29.77;22.80;;;15.90;99.90;;;;;;5070016;28;20424;-50
2021/09/29 07:28:04;;;;;;;30.73;22.87;;;15.90;99.90;;;;;;5081586;28;20438;-49
2021/09/29 07:30:30;;;;;;;28.40;22.33;;;15.90;99.90;;;;;;5083571;28;20459;-48
2021/09/29 07:32:58;;;;;;;30.10;24.47;;;16.00;99.90;;;;;;5072107;28;20780;-48
2021/09/29 07:35:24;;;;;;;32.00;25.47;;;15.90;99.90;;;;;;5076924;28;20632;-49
2021/09/29 07:37:50;;;;;;;31.33;24.47;;;15.90;99.90;;;;;;5069315;28;20459;-50
2021/09/29 07:40:16;;;;;;;33.73;24.87;;;15.90;99.90;;;;;;5069084;28;20473;-49
2021/09/29 07:42:42;;;;;;;29.30;24.30;;;16.00;99.90;;;;;;5067737;28;20420;-48
2021/09/29 07:45:09;;;;;;;33.00;25.37;;;16.00;99.90;;;;;;5069310;28;20186;-48
2021/09/29 07:47:35;;;;;;;33.60;25.07;;;16.00;99.90;;;;;;5068967;28;20625;-49
2021/09/29 07:50:01;;;;;;;33.93;25.30;;;16.10;99.90;;;;;;5066832;28;20445;-51
2021/09/29 07:52:27;;;;;;;31.67;25.77;;;16.00;99.90;;;;;;5079379;28;20188;-55
2021/09/29 07:54:53;;;;;;;32.90;25.20;;;16.00;99.90;;;;;;5085904;28;20521;-48
2021/09/29 07:57:19;;;;;;;32.57;26.10;;;16.00;99.90;;;;;;5088539;28;20197;-48
2021/09/29 07:59:44;;;;;;;32.30;25.43;;;16.10;99.90;;;;;;5080775;28;20779;-46
2021/09/29 08:02:10;;;;;;;34.33;26.10;;;16.00;99.90;;;;;;5079664;28;20435;-50
2021/09/29 08:04:36;;;;;;;34.67;26.50;;;16.10;99.90;;;;;;5067999;28;20264;-50
2021/09/29 08:07:01;;;;;;;31.57;25.60;;;16.10;99.90;;;;;;5068494;28;20185;-49
2021/09/29 08:09:28;;;;;;;31.67;26.50;;;16.10;99.90;;;;;;5068253;28;20181;-49
2021/09/29 08:11:54;;;;;;;35.40;27.60;;;16.10;99.90;;;;;;5068302;28;20244;-50
2021/09/29 08:14:19;;;;;;;33.77;27.57;;;16.00;99.90;;;;;;5068340;28;20440;-51
2021/09/29 08:16:48;;;;;;;37.33;29.10;;;16.10;99.90;;;;;;5073009;28;20215;-48
2021/09/29 08:19:14;;;;;;;38.77;27.83;;;16.00;99.90;;;;;;5073350;28;20299;-49
2021/09/29 08:21:43;;;;;;;34.60;26.40;;;16.10;99.90;;;;;;5079089;28;20509;-48
2021/09/29 08:24:13;;;;;;;34.63;28.20;;;16.20;99.90;;;;;;5073963;28;20438;-47
2021/09/29 08:27:01;;;;;;;37.50;28.60;;;16.20;99.90;;;;;;5072806;28;20432;-46
2021/09/29 08:44:59;;;;;;;32.57;26.07;;;16.80;99.90;;;;;;5073624;28;20461;-46
2021/09/29 08:47:33;;;;;;;31.87;25.83;;;16.80;99.90;;;;;;5081015;28;20452;-51
2021/09/29 09:16:57;;;;;;;24.63;22.03;;;18.10;99.90;;;;;;5063618;28;20984;-47
2021/09/29 09:19:27;;;;;;;26.97;23.10;;;18.10;99.90;;;;;;5075321;28;20813;-52
2021/09/29 09:22:02;;;;;;;27.23;22.90;;;17.90;99.90;;;;;;5076003;28;20861;-47
2021/09/29 09:24:34;;;;;;;27.83;22.57;;;18.00;99.90;;;;;;5072860;28;20421;-54
2021/09/29 09:27:14;;;;;;;26.70;23.10;;;17.80;99.90;;;;;;5072671;28;20422;-49
2021/09/29 09:29:48;;;;;;;26.87;22.90;;;17.70;99.90;;;;;;5092037;28;20425;-49
2021/09/29 09:32:15;;;;;;;27.97;22.23;;;17.60;99.90;;;;;;5075289;28;20853;-52
2021/09/29 09:34:41;;;;;;;27.50;22.87;;;17.50;99.90;;;;;;5071129;28;20494;-48
2021/09/29 09:37:08;;;;;;;25.73;20.30;;;17.60;99.90;;;;;;5076518;28;20860;-51
2021/09/29 09:39:34;;;;;;;26.97;21.37;;;17.50;99.90;;;;;;5074772;28;20286;-49
2021/09/29 09:42:03;;;;;;;25.90;21.40;;;17.60;99.90;;;;;;5077848;28;20975;-51
2021/09/29 09:44:35;;;;;;;27.93;21.13;;;17.50;99.90;;;;;;5063755;28;20221;-47
2021/09/29 09:47:22;;;;;;;25.47;21.47;;;17.50;99.90;;;;;;5066327;28;20435;-48
2021/09/29 09:49:56;;;;;;;25.60;20.53;;;17.60;99.90;;;;;;5076717;28;20855;-51
2021/09/29 09:52:39;;;;;;;23.10;18.73;;;17.60;99.90;;;;;;5068504;28;20422;-52
2021/09/29 09:55:11;;;;;;;22.57;19.33;;;17.70;99.90;;;;;;5062390;28;20423;-52
2021/09/29 09:57:39;;;;;;;22.27;19.30;;;17.80;99.90;;;;;;5078233;28;20500;-49
2021/09/29 10:00:08;;;;;;;23.07;18.77;;;17.90;99.90;;;;;;5073158;28;20418;-48
2021/09/29 10:02:38;;;;;;;23.20;19.53;;;17.90;99.90;;;;;;5062005;28;20425;-53
2021/09/29 10:05:04;;;;;;;20.73;17.20;;;17.90;99.90;;;;;;5062714;28;20426;-48
2021/09/29 10:07:30;;;;;;;20.23;17.10;;;17.90;99.90;;;;;;5063453;28;20439;-50
2021/09/29 10:27:21;;;;;;;18.80;16.57;;;18.60;99.90;;;;;;5069470;28;20434;-50
2021/09/29 10:29:55;;;;;;;22.20;17.97;;;18.70;99.90;;;;;;5064136;28;20182;-51
2021/09/29 10:32:29;;;;;;;19.70;17.37;;;18.80;99.90;;;;;;5062312;28;20447;-53
2021/09/29 10:35:05;;;;;;;18.33;15.40;;;19.00;99.90;;;;;;5070389;28;20930;-54
2021/09/29 10:37:55;;;;;;;18.60;16.60;;;19.30;99.90;;;;;;5069908;28;20455;-50
2021/09/29 10:40:56;;;;;;;23.33;19.77;;;19.60;99.90;;;;;;5069341;28;20408;-48
2021/09/29 10:43:26;;;;;;;18.47;15.43;;;19.70;99.90;;;;;;5069037;28;20467;-53
2021/09/29 10:46:06;;;;;;;23.20;17.83;;;19.80;99.90;;;;;;5066412;28;20501;-52
2021/09/29 11:30:17;;;;;;;8.30;7.57;;;19.20;99.90;;;;;;5005760;28;20410;-52
2021/09/29 12:11:05;;;;;;;6.73;6.13;;;17.60;99.90;;;;;;5068560;28;20463;-48
2021/09/29 12:13:43;;;;;;;6.10;5.60;;;17.60;99.90;;;;;;5068873;28;20424;-49
2021/09/29 12:16:09;;;;;;;7.30;6.60;;;17.60;99.90;;;;;;5066599;28;20438;-51
2021/09/29 12:18:35;;;;;;;7.27;6.57;;;17.70;99.90;;;;;;5064677;28;20460;-50
2021/09/29 12:21:00;;;;;;;6.27;5.67;;;17.80;99.90;;;;;;5068373;28;20177;-54
2021/09/29 12:23:26;;;;;;;6.00;5.40;;;18.00;99.90;;;;;;5065064;28;21913;-48
2021/09/29 12:25:57;;;;;;;6.87;6.27;;;18.10;99.90;;;;;;5068377;28;20177;-51
2021/09/29 12:31:27;;;;;;;6.30;5.70;;;18.40;99.90;;;;;;5065897;28;20414;-50
2021/09/29 12:36:33;;;;;;;8.30;7.60;;;18.70;99.90;;;;;;5071540;28;20409;-52
2021/09/29 12:39:01;;;;;;;10.53;9.53;;;18.90;99.90;;;;;;5072307;28;20419;-52
2021/09/29 12:41:30;;;;;;;9.40;8.60;;;19.00;99.90;;;;;;5072179;28;20447;-49
2021/09/29 12:44:08;;;;;;;11.00;10.00;;;18.90;99.90;;;;;;5071363;28;20508;-54
2021/09/29 12:46:35;;;;;;;11.03;10.03;;;18.90;99.90;;;;;;5070324;28;20912;-49
2021/09/29 12:49:08;;;;;;;10.70;9.80;;;19.00;99.90;;;;;;5071756;28;20770;-51
2021/09/29 12:51:43;;;;;;;10.10;9.03;;;19.00;99.90;;;;;;5071962;28;20418;-52
2021/09/29 12:54:10;;;;;;;10.63;9.63;;;19.00;99.90;;;;;;5079001;28;20407;-52
2021/09/29 12:56:36;;;;;;;10.23;9.23;;;19.00;99.90;;;;;;5083750;28;20464;-55
2021/09/29 12:59:01;;;;;;;8.90;8.00;;;19.20;99.90;;;;;;5079550;28;20432;-54
2021/09/29 13:01:27;;;;;;;7.70;7.00;;;19.20;99.90;;;;;;5082046;28;20178;-52
2021/09/29 13:03:52;;;;;;;8.17;7.47;;;19.40;99.90;;;;;;5078862;28;20185;-52
2021/09/29 13:06:18;;;;;;;6.00;5.50;;;19.40;99.90;;;;;;5071030;28;20177;-54
2021/09/29 13:08:44;;;;;;;6.70;5.90;;;19.40;99.90;;;;;;5080302;28;20188;-51
2021/09/29 13:11:09;;;;;;;6.47;5.97;;;19.60;99.90;;;;;;5086329;28;20192;-49
2021/09/29 13:13:35;;;;;;;6.20;5.60;;;19.60;99.90;;;;;;5073851;28;20216;-49
2021/09/29 13:16:05;;;;;;;6.43;5.93;;;19.70;99.90;;;;;;5073517;28;20181;-53
2021/09/29 13:21:14;;;;;;;5.60;5.20;;;19.70;99.90;;;;;;5071939;28;20419;-52
2021/09/29 13:37:14;;;;;;;4.87;4.57;;;19.90;99.50;;;;;;5063003;28;20470;-49
2021/09/29 13:39:40;;;;;;;5.43;4.20;;;20.30;99.90;;;;;;5067026;28;21760;-47
2021/09/29 13:42:06;;;;;;;5.03;4.63;;;20.70;98.10;;;;;;5067214;28;20463;-51
2021/09/29 13:44:31;;;;;;;4.60;4.20;;;21.10;97.80;;;;;;5067559;28;20237;-53
2021/09/29 13:46:57;;;;;;;4.87;4.57;;;20.90;94.90;;;;;;5068212;28;20216;-51
2021/09/29 13:49:23;;;;;;;4.53;4.23;;;20.80;94.60;;;;;;5068129;28;20416;-46
2021/09/29 13:51:52;;;;;;;5.80;4.80;;;20.50;95.30;;;;;;5067413;28;20177;-50
2021/09/29 13:54:20;;;;;;;4.47;4.27;;;20.70;95.10;;;;;;5067698;28;20697;-48
2021/09/29 13:59:48;;;;;;;4.50;4.20;;;21.30;93.40;;;;;;5056767;28;20444;-51
2021/09/29 14:02:33;;;;;;;4.73;4.43;;;21.90;93.30;;;;;;5056492;28;20415;-47
2021/09/29 14:29:53;;;;;;;4.07;3.87;;;23.20;63.30;;;;;;5068635;28;21011;-50
2021/09/29 14:32:25;;;;;;;4.13;3.93;;;23.10;61.10;;;;;;5067666;28;20512;-50
2021/09/29 14:34:50;;;;;;;4.10;3.90;;;23.50;66.60;;;;;;5082256;28;20422;-49
2021/09/29 14:37:17;;;;;;;4.20;4.00;;;23.80;61.00;;;;;;5076036;28;20828;-51
2021/09/29 14:39:43;;;;;;;3.97;3.67;;;23.80;60.90;;;;;;5085255;28;20653;-52
2021/09/29 14:42:09;;;;;;;3.60;3.40;;;24.20;60.50;;;;;;5084904;28;20453;-47
2021/09/29 14:44:36;;;;;;;4.17;3.83;;;23.90;58.20;;;;;;5072112;28;21118;-53
2021/09/29 14:47:04;;;;;;;4.40;4.00;;;23.80;58.90;;;;;;5065763;28;20735;-50
2021/09/29 14:49:31;;;;;;;3.70;3.47;;;23.80;58.30;;;;;;5068877;28;20515;-50
2021/09/29 14:52:00;;;;;;;3.77;3.47;;;23.50;59.70;;;;;;5068132;28;20912;-50
2021/09/29 14:54:25;;;;;;;4.60;4.20;;;23.50;59.60;;;;;;5062939;28;20464;-50
2021/09/29 14:56:51;;;;;;;3.67;3.47;;;23.80;60.50;;;;;;5066106;28;20518;-51
2021/09/29 14:59:16;;;;;;;5.67;3.90;;;24.20;57.30;;;;;;5061318;28;20193;-54
2021/09/29 15:01:42;;;;;;;4.23;3.93;;;23.90;57.50;;;;;;5060117;28;20185;-53
2021/09/29 15:04:08;;;;;;;4.53;4.13;;;23.50;58.10;;;;;;5069608;28;20185;-51
2021/09/29 15:06:33;;;;;;;4.20;3.90;;;22.90;57.90;;;;;;5076684;28;20253;-49
2021/09/29 15:08:59;;;;;;;4.13;3.93;;;22.50;59.40;;;;;;5088029;28;20738;-49
2021/09/29 15:11:24;;;;;;;4.60;4.30;;;22.30;60.10;;;;;;5066955;28;20196;-53
2021/09/29 15:16:21;;;;;;;4.13;3.83;;;21.90;60.90;;;;;;5067358;28;20687;-55
2021/09/29 15:18:56;;;;;;;3.90;3.60;;;21.50;63.40;;;;;;5077845;28;20213;-49
2021/09/29 15:24:01;;;;;;;4.30;3.90;;;21.00;63.80;;;;;;5060173;28;20823;-51
2021/09/29 15:26:48;;;;;;;4.53;4.23;;;20.90;64.90;;;;;;5075392;28;20522;-51
2021/09/29 15:29:37;;;;;;;4.00;3.80;;;20.70;65.70;;;;;;5061992;28;20432;-53
2021/09/29 15:32:26;;;;;;;3.90;3.70;;;20.40;65.90;;;;;;5064011;28;20436;-51
2021/09/29 15:46:23;;;;;;;3.90;3.60;;;19.70;68.80;;;;;;5061810;28;20433;-54
2021/09/29 15:48:54;;;;;;;4.03;3.73;;;19.60;69.40;;;;;;5069458;28;20431;-52
2021/09/29 15:51:24;;;;;;;4.33;4.13;;;19.60;69.50;;;;;;5070589;28;20462;-54
2021/09/29 15:54:30;;;;;;;4.10;3.90;;;19.40;70.00;;;;;;5070269;28;20452;-54
2021/09/29 16:01:56;;;;;;;4.30;4.10;;;19.40;70.70;;;;;;5069006;28;20187;-55
2021/09/29 16:14:55;;;;;;;3.80;3.60;;;19.10;75.60;;;;;;5066839;28;20446;-50
2021/09/29 16:17:37;;;;;;;3.90;3.60;;;18.90;80.30;;;;;;5066569;28;20472;-55
2021/09/29 16:23:09;;;;;;;5.13;4.80;;;18.60;87.20;;;;;;5068740;28;20519;-54